Long Point, Minnesota
Current Conditions -  °F | °C
As of 8:53 PM on Wednesday 22 Oct 2014 (Local Time) from KBDE Reporting Station
Overcast Overcast  
Wind Chill: 56°   Ceiling: 4200
Heat Index: 56°   Visibility: 10mi
Dew Point: 43°   Wind: 10mph
Humidity: 62%   Direction: 170°S
Pressure: 29.88"   Gusts: NA
Location:  48.7484°N, 94.9438°W
Report Text: KBDE 230153Z AUTO 17009KT 10SM OVC042 13/06 A2988 RMK AO2 SLP125 T01330061 TSNO
Loading
Personal Weather Stations






























Interactive Weather Map
Tropical Storm Tracking
New forecast layout! Learn more

10-Day Weather Forecast

Advertisements
Track Severe Weather on mobile